sensor_id;sensor_type;location;lat;lon;timestamp;temperature;humidity
9776;DHT22;4927;52.472;13.108;2023-05-08T00:00:46;8.00;99.90
9776;DHT22;4927;52.472;13.108;2023-05-08T00:01:48;8.00;99.90
9776;DHT22;4927;52.472;13.108;2023-05-08T00:02:50;7.90;99.90
9776;DHT22;4927;52.472;13.108;2023-05-08T00:03:52;7.90;99.90
9776;DHT22;4927;52.472;13.108;2023-05-08T00:04:53;7.90;99.90
9776;DHT22;4927;52.472;13.108;2023-05-08T00:05:55;7.90;99.90
9776;DHT22;4927;52.472;13.108;2023-05-08T00:06:58;7.90;99.90
9776;DHT22;4927;52.472;13.108;2023-05-08T00:08:00;7.90;99.90
9776;DHT22;4927;52.472;13.108;2023-05-08T00:09:02;7.90;99.90
9776;DHT22;4927;52.472;13.108;2023-05-08T00:10:05;7.90;99.90
9776;DHT22;4927;52.472;13.108;2023-05-08T00:11:08;7.90;99.90
9776;DHT22;4927;52.472;13.108;2023-05-08T00:12:10;7.90;99.90
9776;DHT22;4927;52.472;13.108;2023-05-08T00:13:11;7.90;99.90
9776;DHT22;4927;52.472;13.108;2023-05-08T00:14:13;7.90;99.90
9776;DHT22;4927;52.472;13.108;2023-05-08T00:15:16;7.90;99.90
9776;DHT22;4927;52.472;13.108;2023-05-08T00:16:17;7.90;99.90
9776;DHT22;4927;52.472;13.108;2023-05-08T00:17:19;7.80;99.90
9776;DHT22;4927;52.472;13.108;2023-05-08T00:18:21;7.90;99.90
9776;DHT22;4927;52.472;13.108;2023-05-08T00:19:23;7.80;99.90
9776;DHT22;4927;52.472;13.108;2023-05-08T00:20:24;7.80;99.90
9776;DHT22;4927;52.472;13.108;2023-05-08T00:21:33;7.80;99.90
9776;DHT22;4927;52.472;13.108;2023-05-08T00:22:36;7.80;99.90
9776;DHT22;4927;52.472;13.108;2023-05-08T00:23:38;7.80;99.90
9776;DHT22;4927;52.472;13.108;2023-05-08T00:24:40;7.80;99.90
9776;DHT22;4927;52.472;13.108;2023-05-08T00:25:41;7.80;99.90
9776;DHT22;4927;52.472;13.108;2023-05-08T00:26:44;7.80;99.90
9776;DHT22;4927;52.472;13.108;2023-05-08T00:27:45;7.80;99.90
9776;DHT22;4927;52.472;13.108;2023-05-08T00:28:47;7.80;99.90
9776;DHT22;4927;52.472;13.108;2023-05-08T00:29:49;7.80;99.90
9776;DHT22;4927;52.472;13.108;2023-05-08T00:30:51;7.80;99.90
9776;DHT22;4927;52.472;13.108;2023-05-08T00:31:52;7.80;99.90
9776;DHT22;4927;52.472;13.108;2023-05-08T00:32:54;7.80;99.90
9776;DHT22;4927;52.472;13.108;2023-05-08T00:33:56;7.70;99.90
9776;DHT22;4927;52.472;13.108;2023-05-08T00:34:58;7.70;99.90
9776;DHT22;4927;52.472;13.108;2023-05-08T00:36:00;7.70;99.90
9776;DHT22;4927;52.472;13.108;2023-05-08T00:37:01;7.70;99.90
9776;DHT22;4927;52.472;13.108;2023-05-08T00:38:03;7.70;99.90
9776;DHT22;4927;52.472;13.108;2023-05-08T00:39:05;7.70;99.90
9776;DHT22;4927;52.472;13.108;2023-05-08T00:40:08;7.70;99.90
9776;DHT22;4927;52.472;13.108;2023-05-08T00:41:10;7.70;99.90
9776;DHT22;4927;52.472;13.108;2023-05-08T00:42:12;7.70;99.90
9776;DHT22;4927;52.472;13.108;2023-05-08T00:43:14;7.70;99.90
9776;DHT22;4927;52.472;13.108;2023-05-08T00:44:15;7.70;99.90
9776;DHT22;4927;52.472;13.108;2023-05-08T00:45:17;7.70;99.90
9776;DHT22;4927;52.472;13.108;2023-05-08T00:46:19;7.70;99.90
9776;DHT22;4927;52.472;13.108;2023-05-08T00:47:21;7.70;99.90
9776;DHT22;4927;52.472;13.108;2023-05-08T00:48:23;7.60;99.90
9776;DHT22;4927;52.472;13.108;2023-05-08T00:49:25;7.60;99.90
9776;DHT22;4927;52.472;13.108;2023-05-08T00:50:26;7.60;99.90
9776;DHT22;4927;52.472;13.108;2023-05-08T00:51:28;7.60;99.90
9776;DHT22;4927;52.472;13.108;2023-05-08T00:52:30;7.60;99.90
9776;DHT22;4927;52.472;13.108;2023-05-08T00:53:35;7.60;99.90
9776;DHT22;4927;52.472;13.108;2023-05-08T00:54:35;7.60;99.90
9776;DHT22;4927;52.472;13.108;2023-05-08T00:55:37;7.60;99.90
9776;DHT22;4927;52.472;13.108;2023-05-08T00:56:39;7.60;99.90
9776;DHT22;4927;52.472;13.108;2023-05-08T00:57:40;7.60;99.90
9776;DHT22;4927;52.472;13.108;2023-05-08T00:58:42;7.60;99.90
9776;DHT22;4927;52.472;13.108;2023-05-08T00:59:44;7.60;99.90
9776;DHT22;4927;52.472;13.108;2023-05-08T01:00:46;7.60;99.90
9776;DHT22;4927;52.472;13.108;2023-05-08T01:01:47;7.60;99.90
9776;DHT22;4927;52.472;13.108;2023-05-08T01:02:49;7.50;99.90
9776;DHT22;4927;52.472;13.108;2023-05-08T01:03:51;7.50;99.90
9776;DHT22;4927;52.472;13.108;2023-05-08T01:04:53;7.50;99.90
9776;DHT22;4927;52.472;13.108;2023-05-08T01:05:54;7.50;99.90
9776;DHT22;4927;52.472;13.108;2023-05-08T01:06:57;7.50;99.90
9776;DHT22;4927;52.472;13.108;2023-05-08T01:07:59;7.50;99.90
9776;DHT22;4927;52.472;13.108;2023-05-08T01:09:02;7.50;99.90
9776;DHT22;4927;52.472;13.108;2023-05-08T01:10:04;7.50;99.90
9776;DHT22;4927;52.472;13.108;2023-05-08T01:11:15;7.50;99.90
9776;DHT22;4927;52.472;13.108;2023-05-08T01:12:25;7.50;99.90
9776;DHT22;4927;52.472;13.108;2023-05-08T01:13:49;7.50;99.90
9776;DHT22;4927;52.472;13.108;2023-05-08T01:15:11;7.40;99.90
9776;DHT22;4927;52.472;13.108;2023-05-08T01:16:14;7.40;99.90
9776;DHT22;4927;52.472;13.108;2023-05-08T01:17:29;7.40;99.90
9776;DHT22;4927;52.472;13.108;2023-05-08T01:18:39;7.40;99.90
9776;DHT22;4927;52.472;13.108;2023-05-08T01:19:50;7.40;99.90
9776;DHT22;4927;52.472;13.108;2023-05-08T01:21:06;7.40;99.90
9776;DHT22;4927;52.472;13.108;2023-05-08T01:22:27;7.40;99.90
9776;DHT22;4927;52.472;13.108;2023-05-08T01:24:09;7.40;99.90
9776;DHT22;4927;52.472;13.108;2023-05-08T01:27:13;7.30;99.90
9776;DHT22;4927;52.472;13.108;2023-05-08T01:30:04;7.30;99.90
9776;DHT22;4927;52.472;13.108;2023-05-08T01:31:24;7.30;99.90
9776;DHT22;4927;52.472;13.108;2023-05-08T01:32:35;7.30;99.90
9776;DHT22;4927;52.472;13.108;2023-05-08T01:33:44;7.20;99.90
9776;DHT22;4927;52.472;13.108;2023-05-08T01:34:59;7.30;99.90
9776;DHT22;4927;52.472;13.108;2023-05-08T01:36:10;7.20;99.90
9776;DHT22;4927;52.472;13.108;2023-05-08T01:37:18;7.20;99.90
9776;DHT22;4927;52.472;13.108;2023-05-08T01:38:25;7.20;99.90
9776;DHT22;4927;52.472;13.108;2023-05-08T01:39:50;7.20;99.90
9776;DHT22;4927;52.472;13.108;2023-05-08T01:40:52;7.20;99.90
9776;DHT22;4927;52.472;13.108;2023-05-08T01:41:57;7.20;99.90
9776;DHT22;4927;52.472;13.108;2023-05-08T01:43:13;7.20;99.90
9776;DHT22;4927;52.472;13.108;2023-05-08T01:44:17;7.20;99.90
9776;DHT22;4927;52.472;13.108;2023-05-08T01:45:21;7.20;99.90
9776;DHT22;4927;52.472;13.108;2023-05-08T01:46:23;7.20;99.90
9776;DHT22;4927;52.472;13.108;2023-05-08T01:47:24;7.20;99.90
9776;DHT22;4927;52.472;13.108;2023-05-08T01:48:32;7.20;99.90
9776;DHT22;4927;52.472;13.108;2023-05-08T01:49:33;7.20;99.90
9776;DHT22;4927;52.472;13.108;2023-05-08T01:50:41;7.20;99.90
9776;DHT22;4927;52.472;13.108;2023-05-08T01:51:44;7.20;99.90
9776;DHT22;4927;52.472;13.108;2023-05-08T01:52:49;7.10;99.90
9776;DHT22;4927;52.472;13.108;2023-05-08T01:53:51;7.10;99.90
9776;DHT22;4927;52.472;13.108;2023-05-08T01:55:09;7.10;99.90
9776;DHT22;4927;52.472;13.108;2023-05-08T01:56:12;7.10;99.90
9776;DHT22;4927;52.472;13.108;2023-05-08T01:57:13;7.10;99.90
9776;DHT22;4927;52.472;13.108;2023-05-08T01:58:14;7.00;99.90
9776;DHT22;4927;52.472;13.108;2023-05-08T01:59:18;7.00;99.90
9776;DHT22;4927;52.472;13.108;2023-05-08T02:00:20;7.00;99.90
9776;DHT22;4927;52.472;13.108;2023-05-08T02:01:21;7.00;99.90
9776;DHT22;4927;52.472;13.108;2023-05-08T02:02:23;7.00;99.90
9776;DHT22;4927;52.472;13.108;2023-05-08T02:03:25;7.00;99.90
9776;DHT22;4927;52.472;13.108;2023-05-08T02:04:27;7.00;99.90
9776;DHT22;4927;52.472;13.108;2023-05-08T02:05:28;7.00;99.90
9776;DHT22;4927;52.472;13.108;2023-05-08T02:06:30;7.00;99.90
9776;DHT22;4927;52.472;13.108;2023-05-08T02:07:32;7.00;99.90
9776;DHT22;4927;52.472;13.108;2023-05-08T02:08:35;6.90;99.90
9776;DHT22;4927;52.472;13.108;2023-05-08T02:09:36;6.90;99.90
9776;DHT22;4927;52.472;13.108;2023-05-08T02:10:38;6.90;99.90
9776;DHT22;4927;52.472;13.108;2023-05-08T02:11:40;6.90;99.90
9776;DHT22;4927;52.472;13.108;2023-05-08T02:12:42;6.90;99.90
9776;DHT22;4927;52.472;13.108;2023-05-08T02:13:45;6.90;99.90
9776;DHT22;4927;52.472;13.108;2023-05-08T02:14:46;6.90;99.90
9776;DHT22;4927;52.472;13.108;2023-05-08T02:15:48;6.90;99.90
9776;DHT22;4927;52.472;13.108;2023-05-08T02:16:50;6.90;99.90
9776;DHT22;4927;52.472;13.108;2023-05-08T02:17:52;6.90;99.90
9776;DHT22;4927;52.472;13.108;2023-05-08T02:18:54;6.80;99.90
9776;DHT22;4927;52.472;13.108;2023-05-08T02:19:57;6.80;99.90
9776;DHT22;4927;52.472;13.108;2023-05-08T02:20:59;6.80;99.90
9776;DHT22;4927;52.472;13.108;2023-05-08T02:22:01;6.80;99.90
9776;DHT22;4927;52.472;13.108;2023-05-08T02:23:03;6.80;99.90
9776;DHT22;4927;52.472;13.108;2023-05-08T02:24:06;6.80;99.90
9776;DHT22;4927;52.472;13.108;2023-05-08T02:25:08;6.80;99.90
9776;DHT22;4927;52.472;13.108;2023-05-08T02:26:12;6.80;99.90
9776;DHT22;4927;52.472;13.108;2023-05-08T02:27:14;6.80;99.90
9776;DHT22;4927;52.472;13.108;2023-05-08T02:28:15;6.80;99.90
9776;DHT22;4927;52.472;13.108;2023-05-08T02:29:18;6.70;99.90
9776;DHT22;4927;52.472;13.108;2023-05-08T02:30:20;6.70;99.90
9776;DHT22;4927;52.472;13.108;2023-05-08T02:31:22;6.70;99.90
9776;DHT22;4927;52.472;13.108;2023-05-08T02:32:24;6.70;99.90
9776;DHT22;4927;52.472;13.108;2023-05-08T02:33:25;6.70;99.90
9776;DHT22;4927;52.472;13.108;2023-05-08T02:34:27;6.70;99.90
9776;DHT22;4927;52.472;13.108;2023-05-08T02:35:29;6.70;99.90
9776;DHT22;4927;52.472;13.108;2023-05-08T02:36:31;6.70;99.90
9776;DHT22;4927;52.472;13.108;2023-05-08T02:37:32;6.70;99.90
9776;DHT22;4927;52.472;13.108;2023-05-08T02:38:34;6.70;99.90
9776;DHT22;4927;52.472;13.108;2023-05-08T02:39:36;6.70;99.90
9776;DHT22;4927;52.472;13.108;2023-05-08T02:40:38;6.70;99.90
9776;DHT22;4927;52.472;13.108;2023-05-08T02:41:39;6.70;99.90
9776;DHT22;4927;52.472;13.108;2023-05-08T02:42:41;6.70;99.90
9776;DHT22;4927;52.472;13.108;2023-05-08T02:43:43;6.70;99.90
9776;DHT22;4927;52.472;13.108;2023-05-08T02:44:45;6.70;99.90
9776;DHT22;4927;52.472;13.108;2023-05-08T02:45:48;6.70;99.90
9776;DHT22;4927;52.472;13.108;2023-05-08T02:46:56;6.70;99.90
9776;DHT22;4927;52.472;13.108;2023-05-08T02:48:33;6.60;99.90
9776;DHT22;4927;52.472;13.108;2023-05-08T02:49:42;6.60;99.90
9776;DHT22;4927;52.472;13.108;2023-05-08T02:50:59;6.60;99.90
9776;DHT22;4927;52.472;13.108;2023-05-08T02:52:04;6.60;99.90
9776;DHT22;4927;52.472;13.108;2023-05-08T02:53:08;6.60;99.90
9776;DHT22;4927;52.472;13.108;2023-05-08T02:54:09;6.60;99.90
9776;DHT22;4927;52.472;13.108;2023-05-08T02:55:32;6.60;99.90
9776;DHT22;4927;52.472;13.108;2023-05-08T02:56:39;6.60;99.90
9776;DHT22;4927;52.472;13.108;2023-05-08T02:57:58;6.50;99.90
9776;DHT22;4927;52.472;13.108;2023-05-08T02:59:07;6.50;99.90
9776;DHT22;4927;52.472;13.108;2023-05-08T03:00:18;6.50;99.90
9776;DHT22;4927;52.472;13.108;2023-05-08T03:01:32;6.50;99.90
9776;DHT22;4927;52.472;13.108;2023-05-08T03:02:36;6.50;99.90
9776;DHT22;4927;52.472;13.108;2023-05-08T03:03:40;6.50;99.90
9776;DHT22;4927;52.472;13.108;2023-05-08T03:04:50;6.40;99.90
9776;DHT22;4927;52.472;13.108;2023-05-08T03:05:53;6.40;99.90
9776;DHT22;4927;52.472;13.108;2023-05-08T03:06:55;6.40;99.90
9776;DHT22;4927;52.472;13.108;2023-05-08T03:07:56;6.40;99.90
9776;DHT22;4927;52.472;13.108;2023-05-08T03:08:58;6.40;99.90
9776;DHT22;4927;52.472;13.108;2023-05-08T03:10:01;6.40;99.90
9776;DHT22;4927;52.472;13.108;2023-05-08T03:11:07;6.40;99.90
9776;DHT22;4927;52.472;13.108;2023-05-08T03:12:11;6.40;99.90
9776;DHT22;4927;52.472;13.108;2023-05-08T03:13:12;6.40;99.90
9776;DHT22;4927;52.472;13.108;2023-05-08T03:14:14;6.40;99.90
9776;DHT22;4927;52.472;13.108;2023-05-08T03:15:20;6.40;99.90
9776;DHT22;4927;52.472;13.108;2023-05-08T03:16:21;6.40;99.90
9776;DHT22;4927;52.472;13.108;2023-05-08T03:17:21;6.40;99.90
9776;DHT22;4927;52.472;13.108;2023-05-08T03:18:26;6.40;99.90
9776;DHT22;4927;52.472;13.108;2023-05-08T03:19:29;6.40;99.90
9776;DHT22;4927;52.472;13.108;2023-05-08T03:20:30;6.40;99.90
9776;DHT22;4927;52.472;13.108;2023-05-08T03:21:31;6.40;99.90
9776;DHT22;4927;52.472;13.108;2023-05-08T03:22:33;6.40;99.90
9776;DHT22;4927;52.472;13.108;2023-05-08T03:23:36;6.30;99.90
9776;DHT22;4927;52.472;13.108;2023-05-08T03:24:37;6.30;99.90
9776;DHT22;4927;52.472;13.108;2023-05-08T03:25:40;6.30;99.90
9776;DHT22;4927;52.472;13.108;2023-05-08T03:26:49;6.30;99.90
9776;DHT22;4927;52.472;13.108;2023-05-08T03:27:51;6.30;99.90
9776;DHT22;4927;52.472;13.108;2023-05-08T03:28:52;6.30;99.90
9776;DHT22;4927;52.472;13.108;2023-05-08T03:29:55;6.30;99.90
9776;DHT22;4927;52.472;13.108;2023-05-08T03:30:57;6.30;99.90
9776;DHT22;4927;52.472;13.108;2023-05-08T03:31:59;6.30;99.90
9776;DHT22;4927;52.472;13.108;2023-05-08T03:33:02;6.30;99.90
9776;DHT22;4927;52.472;13.108;2023-05-08T03:34:03;6.30;99.90
9776;DHT22;4927;52.472;13.108;2023-05-08T03:35:06;6.30;99.90
9776;DHT22;4927;52.472;13.108;2023-05-08T03:36:08;6.30;99.90
9776;DHT22;4927;52.472;13.108;2023-05-08T03:37:10;6.30;99.90
9776;DHT22;4927;52.472;13.108;2023-05-08T03:38:12;6.30;99.90
9776;DHT22;4927;52.472;13.108;2023-05-08T03:39:13;6.30;99.90
9776;DHT22;4927;52.472;13.108;2023-05-08T03:40:15;6.30;99.90
9776;DHT22;4927;52.472;13.108;2023-05-08T03:41:17;6.30;99.90
9776;DHT22;4927;52.472;13.108;2023-05-08T03:42:19;6.30;99.90
9776;DHT22;4927;52.472;13.108;2023-05-08T03:43:22;6.30;99.90
9776;DHT22;4927;52.472;13.108;2023-05-08T03:44:24;6.30;99.90
9776;DHT22;4927;52.472;13.108;2023-05-08T03:45:25;6.30;99.90
9776;DHT22;4927;52.472;13.108;2023-05-08T03:46:27;6.30;99.90
9776;DHT22;4927;52.472;13.108;2023-05-08T03:47:29;6.30;99.90
9776;DHT22;4927;52.472;13.108;2023-05-08T03:48:32;6.30;99.90
9776;DHT22;4927;52.472;13.108;2023-05-08T03:49:33;6.30;99.90
9776;DHT22;4927;52.472;13.108;2023-05-08T03:50:36;6.30;99.90
9776;DHT22;4927;52.472;13.108;2023-05-08T03:51:37;6.30;99.90
9776;DHT22;4927;52.472;13.108;2023-05-08T03:52:39;6.30;99.90
9776;DHT22;4927;52.472;13.108;2023-05-08T03:53:41;6.30;99.90
9776;DHT22;4927;52.472;13.108;2023-05-08T03:54:43;6.30;99.90
9776;DHT22;4927;52.472;13.108;2023-05-08T03:55:45;6.30;99.90
9776;DHT22;4927;52.472;13.108;2023-05-08T03:56:47;6.30;99.90
9776;DHT22;4927;52.472;13.108;2023-05-08T03:57:58;6.30;99.90
9776;DHT22;4927;52.472;13.108;2023-05-08T03:59:13;6.30;99.90
9776;DHT22;4927;52.472;13.108;2023-05-08T04:00:13;6.30;99.90
9776;DHT22;4927;52.472;13.108;2023-05-08T04:01:22;6.30;99.90
9776;DHT22;4927;52.472;13.108;2023-05-08T04:02:27;6.30;99.90
9776;DHT22;4927;52.472;13.108;2023-05-08T04:03:55;6.30;99.90
9776;DHT22;4927;52.472;13.108;2023-05-08T04:05:01;6.30;99.90
9776;DHT22;4927;52.472;13.108;2023-05-08T04:06:09;6.30;99.90
9776;DHT22;4927;52.472;13.108;2023-05-08T04:07:26;6.30;99.90
9776;DHT22;4927;52.472;13.108;2023-05-08T04:08:28;6.30;99.90
9776;DHT22;4927;52.472;13.108;2023-05-08T04:09:36;6.30;99.90
9776;DHT22;4927;52.472;13.108;2023-05-08T04:10:38;6.30;99.90
9776;DHT22;4927;52.472;13.108;2023-05-08T04:11:41;6.30;99.90
9776;DHT22;4927;52.472;13.108;2023-05-08T04:13:56;6.30;99.90
9776;DHT22;4927;52.472;13.108;2023-05-08T04:15:00;6.30;99.90
9776;DHT22;4927;52.472;13.108;2023-05-08T04:16:16;6.30;99.90
9776;DHT22;4927;52.472;13.108;2023-05-08T04:17:21;6.30;99.90
9776;DHT22;4927;52.472;13.108;2023-05-08T04:18:23;6.30;99.90
9776;DHT22;4927;52.472;13.108;2023-05-08T04:19:23;6.30;99.90
9776;DHT22;4927;52.472;13.108;2023-05-08T04:20:27;6.40;99.90
9776;DHT22;4927;52.472;13.108;2023-05-08T04:21:29;6.40;99.90
9776;DHT22;4927;52.472;13.108;2023-05-08T04:22:32;6.40;99.90
9776;DHT22;4927;52.472;13.108;2023-05-08T04:23:33;6.40;99.90
9776;DHT22;4927;52.472;13.108;2023-05-08T04:24:39;6.40;99.90
9776;DHT22;4927;52.472;13.108;2023-05-08T04:25:39;6.40;99.90
9776;DHT22;4927;52.472;13.108;2023-05-08T04:26:41;6.50;99.90
9776;DHT22;4927;52.472;13.108;2023-05-08T04:27:43;6.50;99.90
9776;DHT22;4927;52.472;13.108;2023-05-08T04:28:45;6.50;99.90
9776;DHT22;4927;52.472;13.108;2023-05-08T04:29:55;6.50;99.90
9776;DHT22;4927;52.472;13.108;2023-05-08T04:30:57;6.50;99.90
9776;DHT22;4927;52.472;13.108;2023-05-08T04:31:59;6.50;99.90
9776;DHT22;4927;52.472;13.108;2023-05-08T04:33:01;6.50;99.90
9776;DHT22;4927;52.472;13.108;2023-05-08T04:34:02;6.50;99.90
9776;DHT22;4927;52.472;13.108;2023-05-08T04:35:05;6.60;99.90
9776;DHT22;4927;52.472;13.108;2023-05-08T04:36:10;6.60;99.90
9776;DHT22;4927;52.472;13.108;2023-05-08T04:37:20;6.60;99.90
9776;DHT22;4927;52.472;13.108;2023-05-08T04:38:12;6.70;99.90
9776;DHT22;4927;52.472;13.108;2023-05-08T04:39:15;6.70;99.90
9776;DHT22;4927;52.472;13.108;2023-05-08T04:40:16;6.70;99.90
9776;DHT22;4927;52.472;13.108;2023-05-08T04:41:18;6.70;99.90
9776;DHT22;4927;52.472;13.108;2023-05-08T04:42:20;6.70;99.90
9776;DHT22;4927;52.472;13.108;2023-05-08T04:43:22;6.70;99.90
9776;DHT22;4927;52.472;13.108;2023-05-08T04:44:24;6.80;99.90
9776;DHT22;4927;52.472;13.108;2023-05-08T04:45:27;6.80;99.90
9776;DHT22;4927;52.472;13.108;2023-05-08T04:46:29;6.80;99.90
9776;DHT22;4927;52.472;13.108;2023-05-08T04:47:30;6.80;99.90
9776;DHT22;4927;52.472;13.108;2023-05-08T04:48:32;6.90;99.90
9776;DHT22;4927;52.472;13.108;2023-05-08T04:49:34;6.90;99.90
9776;DHT22;4927;52.472;13.108;2023-05-08T04:50:36;7.00;99.90
9776;DHT22;4927;52.472;13.108;2023-05-08T04:51:38;7.00;99.90
9776;DHT22;4927;52.472;13.108;2023-05-08T04:52:40;7.00;99.90
9776;DHT22;4927;52.472;13.108;2023-05-08T04:53:41;7.00;99.90
9776;DHT22;4927;52.472;13.108;2023-05-08T04:54:43;7.10;99.90
9776;DHT22;4927;52.472;13.108;2023-05-08T04:55:45;7.10;99.90
9776;DHT22;4927;52.472;13.108;2023-05-08T04:56:53;7.10;99.90
9776;DHT22;4927;52.472;13.108;2023-05-08T04:57:55;7.10;99.90
9776;DHT22;4927;52.472;13.108;2023-05-08T04:58:57;7.20;99.90
9776;DHT22;4927;52.472;13.108;2023-05-08T04:59:59;7.20;99.90
9776;DHT22;4927;52.472;13.108;2023-05-08T05:01:01;7.20;99.90
9776;DHT22;4927;52.472;13.108;2023-05-08T05:02:02;7.20;99.90
9776;DHT22;4927;52.472;13.108;2023-05-08T05:03:04;7.30;99.90
9776;DHT22;4927;52.472;13.108;2023-05-08T05:04:06;7.30;99.90
9776;DHT22;4927;52.472;13.108;2023-05-08T05:05:08;7.30;99.90
9776;DHT22;4927;52.472;13.108;2023-05-08T05:06:10;7.40;99.90
9776;DHT22;4927;52.472;13.108;2023-05-08T05:07:11;7.40;99.90
9776;DHT22;4927;52.472;13.108;2023-05-08T05:08:14;7.50;99.90
9776;DHT22;4927;52.472;13.108;2023-05-08T05:09:16;7.50;99.90
9776;DHT22;4927;52.472;13.108;2023-05-08T05:10:18;7.50;99.90
9776;DHT22;4927;52.472;13.108;2023-05-08T05:11:20;7.50;99.90
9776;DHT22;4927;52.472;13.108;2023-05-08T05:12:22;7.60;99.90
9776;DHT22;4927;52.472;13.108;2023-05-08T05:13:24;7.60;99.90
9776;DHT22;4927;52.472;13.108;2023-05-08T05:14:33;7.60;99.90
9776;DHT22;4927;52.472;13.108;2023-05-08T05:15:35;7.70;99.90
9776;DHT22;4927;52.472;13.108;2023-05-08T05:16:38;7.70;99.90
9776;DHT22;4927;52.472;13.108;2023-05-08T05:17:40;7.70;99.90
9776;DHT22;4927;52.472;13.108;2023-05-08T05:18:41;7.70;99.90
9776;DHT22;4927;52.472;13.108;2023-05-08T05:19:44;7.80;99.90
9776;DHT22;4927;52.472;13.108;2023-05-08T05:20:46;7.90;99.90
9776;DHT22;4927;52.472;13.108;2023-05-08T05:21:48;7.80;99.90
9776;DHT22;4927;52.472;13.108;2023-05-08T05:22:50;7.90;99.90
9776;DHT22;4927;52.472;13.108;2023-05-08T05:23:52;7.90;99.90
9776;DHT22;4927;52.472;13.108;2023-05-08T05:24:53;8.00;99.90
9776;DHT22;4927;52.472;13.108;2023-05-08T05:25:56;8.00;99.90
9776;DHT22;4927;52.472;13.108;2023-05-08T05:26:58;8.10;99.90
9776;DHT22;4927;52.472;13.108;2023-05-08T05:28:01;8.10;99.90
9776;DHT22;4927;52.472;13.108;2023-05-08T05:29:03;8.20;99.90
9776;DHT22;4927;52.472;13.108;2023-05-08T05:30:06;8.10;99.90
9776;DHT22;4927;52.472;13.108;2023-05-08T05:31:09;8.20;99.90
9776;DHT22;4927;52.472;13.108;2023-05-08T05:32:10;8.20;99.90
9776;DHT22;4927;52.472;13.108;2023-05-08T05:33:12;8.20;99.90
9776;DHT22;4927;52.472;13.108;2023-05-08T05:34:14;8.30;99.90
9776;DHT22;4927;52.472;13.108;2023-05-08T05:35:16;8.30;99.90
9776;DHT22;4927;52.472;13.108;2023-05-08T05:36:18;8.40;99.90
9776;DHT22;4927;52.472;13.108;2023-05-08T05:37:19;8.40;99.90
9776;DHT22;4927;52.472;13.108;2023-05-08T05:38:21;8.40;99.90
9776;DHT22;4927;52.472;13.108;2023-05-08T05:39:23;8.40;99.90
9776;DHT22;4927;52.472;13.108;2023-05-08T05:40:25;8.40;99.90
9776;DHT22;4927;52.472;13.108;2023-05-08T05:41:27;8.40;99.90
9776;DHT22;4927;52.472;13.108;2023-05-08T05:42:28;8.40;99.90
9776;DHT22;4927;52.472;13.108;2023-05-08T05:43:31;8.50;99.90
9776;DHT22;4927;52.472;13.108;2023-05-08T05:44:32;8.50;99.90
9776;DHT22;4927;52.472;13.108;2023-05-08T05:45:34;8.50;99.90
9776;DHT22;4927;52.472;13.108;2023-05-08T05:46:36;8.50;99.90
9776;DHT22;4927;52.472;13.108;2023-05-08T05:47:37;8.50;99.90
9776;DHT22;4927;52.472;13.108;2023-05-08T05:48:39;8.60;99.90
9776;DHT22;4927;52.472;13.108;2023-05-08T05:49:41;8.60;99.90
9776;DHT22;4927;52.472;13.108;2023-05-08T05:50:43;8.60;99.90
9776;DHT22;4927;52.472;13.108;2023-05-08T05:51:44;8.70;99.90
9776;DHT22;4927;52.472;13.108;2023-05-08T05:52:46;8.70;99.90
9776;DHT22;4927;52.472;13.108;2023-05-08T05:53:48;8.70;99.90
9776;DHT22;4927;52.472;13.108;2023-05-08T05:54:49;8.70;99.90
9776;DHT22;4927;52.472;13.108;2023-05-08T05:55:51;8.70;99.90
9776;DHT22;4927;52.472;13.108;2023-05-08T05:56:53;8.70;99.90
9776;DHT22;4927;52.472;13.108;2023-05-08T05:57:55;8.80;99.90
9776;DHT22;4927;52.472;13.108;2023-05-08T05:58:56;8.80;99.90
9776;DHT22;4927;52.472;13.108;2023-05-08T05:59:58;8.80;99.90
9776;DHT22;4927;52.472;13.108;2023-05-08T06:01:00;8.80;99.90
9776;DHT22;4927;52.472;13.108;2023-05-08T06:02:02;8.80;99.90
9776;DHT22;4927;52.472;13.108;2023-05-08T06:03:04;8.80;99.90
9776;DHT22;4927;52.472;13.108;2023-05-08T06:04:06;8.90;99.90
9776;DHT22;4927;52.472;13.108;2023-05-08T06:05:08;8.90;99.90
9776;DHT22;4927;52.472;13.108;2023-05-08T06:06:10;8.80;99.90
9776;DHT22;4927;52.472;13.108;2023-05-08T06:07:11;8.90;99.90
9776;DHT22;4927;52.472;13.108;2023-05-08T06:08:13;8.90;99.90
9776;DHT22;4927;52.472;13.108;2023-05-08T06:09:18;8.90;99.90
9776;DHT22;4927;52.472;13.108;2023-05-08T06:10:19;8.90;99.90
9776;DHT22;4927;52.472;13.108;2023-05-08T06:11:21;9.00;99.90
9776;DHT22;4927;52.472;13.108;2023-05-08T06:12:23;9.00;99.90
9776;DHT22;4927;52.472;13.108;2023-05-08T06:13:26;9.00;99.90
9776;DHT22;4927;52.472;13.108;2023-05-08T06:14:28;9.10;99.90
9776;DHT22;4927;52.472;13.108;2023-05-08T06:15:30;9.10;99.90
9776;DHT22;4927;52.472;13.108;2023-05-08T06:16:32;9.10;99.90
9776;DHT22;4927;52.472;13.108;2023-05-08T06:17:33;9.10;99.90
9776;DHT22;4927;52.472;13.108;2023-05-08T06:18:35;9.20;99.90
9776;DHT22;4927;52.472;13.108;2023-05-08T06:19:37;9.20;99.90
9776;DHT22;4927;52.472;13.108;2023-05-08T06:20:39;9.20;99.90
9776;DHT22;4927;52.472;13.108;2023-05-08T06:21:40;9.20;99.90
9776;DHT22;4927;52.472;13.108;2023-05-08T06:22:42;9.30;99.90
9776;DHT22;4927;52.472;13.108;2023-05-08T06:23:44;9.30;99.90
9776;DHT22;4927;52.472;13.108;2023-05-08T06:24:46;9.30;99.90
9776;DHT22;4927;52.472;13.108;2023-05-08T06:25:48;9.40;99.90
9776;DHT22;4927;52.472;13.108;2023-05-08T06:26:50;9.40;99.90
9776;DHT22;4927;52.472;13.108;2023-05-08T06:27:52;9.50;99.90
9776;DHT22;4927;52.472;13.108;2023-05-08T06:28:54;9.50;99.90
9776;DHT22;4927;52.472;13.108;2023-05-08T06:29:56;9.50;99.90
9776;DHT22;4927;52.472;13.108;2023-05-08T06:30:58;9.60;99.90
9776;DHT22;4927;52.472;13.108;2023-05-08T06:32:00;9.60;99.90
9776;DHT22;4927;52.472;13.108;2023-05-08T06:33:02;9.60;99.90
9776;DHT22;4927;52.472;13.108;2023-05-08T06:34:04;9.60;99.90
9776;DHT22;4927;52.472;13.108;2023-05-08T06:35:06;9.70;99.90
9776;DHT22;4927;52.472;13.108;2023-05-08T06:36:09;9.70;99.90
9776;DHT22;4927;52.472;13.108;2023-05-08T06:37:11;9.70;99.90
9776;DHT22;4927;52.472;13.108;2023-05-08T06:38:13;9.70;99.90
9776;DHT22;4927;52.472;13.108;2023-05-08T06:39:15;9.80;99.90
9776;DHT22;4927;52.472;13.108;2023-05-08T06:40:17;9.80;99.90
9776;DHT22;4927;52.472;13.108;2023-05-08T06:41:19;9.90;99.90
9776;DHT22;4927;52.472;13.108;2023-05-08T06:42:22;10.00;99.90
9776;DHT22;4927;52.472;13.108;2023-05-08T06:43:23;10.00;99.90
9776;DHT22;4927;52.472;13.108;2023-05-08T06:44:26;10.10;99.90
9776;DHT22;4927;52.472;13.108;2023-05-08T06:45:28;10.10;99.90
9776;DHT22;4927;52.472;13.108;2023-05-08T06:46:30;10.20;99.90
9776;DHT22;4927;52.472;13.108;2023-05-08T06:47:32;10.10;99.90
9776;DHT22;4927;52.472;13.108;2023-05-08T06:48:34;10.20;99.90
9776;DHT22;4927;52.472;13.108;2023-05-08T06:49:35;10.20;99.90
9776;DHT22;4927;52.472;13.108;2023-05-08T06:50:38;10.30;99.90
9776;DHT22;4927;52.472;13.108;2023-05-08T06:51:41;10.30;99.90
9776;DHT22;4927;52.472;13.108;2023-05-08T06:52:42;10.30;99.90
9776;DHT22;4927;52.472;13.108;2023-05-08T06:53:45;10.40;99.90
9776;DHT22;4927;52.472;13.108;2023-05-08T06:54:47;10.50;99.90
9776;DHT22;4927;52.472;13.108;2023-05-08T06:55:50;10.40;99.90
9776;DHT22;4927;52.472;13.108;2023-05-08T06:56:52;10.50;99.90
9776;DHT22;4927;52.472;13.108;2023-05-08T06:57:53;10.50;99.90
9776;DHT22;4927;52.472;13.108;2023-05-08T06:58:55;10.60;99.90
9776;DHT22;4927;52.472;13.108;2023-05-08T06:59:57;10.60;99.90